Time;durP1;ratioP1;P1;durP2;ratioP2;P2;SDS_P1;SDS_P2;PMS_P1;PMS_P2;Temp;Humidity;BMP_temperature;BMP_pressure;BME280_temperature;BME280_humidity;BME280_pressure;Samples;Min_cycle;Max_cycle;Signal;HPM_P1;HPM_P2
2022/04/14 00:00:05;;;;;;;31.27;18.77;;;;;;;;;;5004021;28;20045;-85
2022/04/14 00:02:30;;;;;;;26.55;18.00;;;;;;;;;;5022209;28;20026;-88
2022/04/14 00:04:55;;;;;;;28.00;18.88;;;;;;;;;;5003842;28;20034;-88
2022/04/14 00:07:21;;;;;;;26.77;18.80;;;;;;;;;;5006416;28;20528;-88
2022/04/14 00:09:46;;;;;;;27.88;18.83;;;;;;;;;;5003714;28;20034;-82
2022/04/14 00:12:12;;;;;;;27.05;18.40;;;;;;;;;;5003256;28;20029;-84
2022/04/14 00:14:37;;;;;;;27.92;18.83;;;;;;;;;;5004483;28;20069;-82
2022/04/14 00:17:03;;;;;;;28.02;18.83;;;;;;;;;;5003508;28;20026;-83
2022/04/14 00:19:28;;;;;;;31.27;19.80;;;;;;;;;;5003196;28;20079;-84
2022/04/14 00:21:53;;;;;;;31.42;20.38;;;;;;;;;;4999992;28;20090;-82
2022/04/14 00:24:19;;;;;;;27.75;18.95;;;;;;;;;;5002900;28;20029;-82
2022/04/14 00:26:44;;;;;;;29.92;19.15;;;;;;;;;;5003843;28;20920;-82
2022/04/14 00:29:11;;;;;;;27.58;18.73;;;;;;;;;;5004899;28;20030;-82
2022/04/14 00:31:36;;;;;;;26.48;18.15;;;;;;;;;;5004267;28;20417;-83
2022/04/14 00:34:02;;;;;;;27.17;17.65;;;;;;;;;;5002820;28;20033;-85
2022/04/14 00:36:28;;;;;;;26.30;17.85;;;;;;;;;;5004157;28;20042;-89
2022/04/14 00:38:54;;;;;;;27.20;18.67;;;;;;;;;;5007028;28;20030;-87
2022/04/14 00:41:19;;;;;;;29.08;18.63;;;;;;;;;;5002670;28;20100;-82
2022/04/14 00:43:53;;;;;;;25.95;17.73;;;;;;;;;;5000868;28;20448;-86
2022/04/14 00:46:18;;;;;;;27.52;18.83;;;;;;;;;;5007937;28;20033;-90
2022/04/14 00:48:44;;;;;;;28.73;19.05;;;;;;;;;;5004771;28;20053;-86
2022/04/14 00:51:10;;;;;;;27.83;17.58;;;;;;;;;;5005348;28;20036;-87
2022/04/14 00:53:37;;;;;;;25.65;17.63;;;;;;;;;;5007314;28;20636;-82
2022/04/14 00:56:03;;;;;;;23.73;17.33;;;;;;;;;;4998219;28;20132;-86
2022/04/14 00:58:29;;;;;;;28.50;17.90;;;;;;;;;;5002328;28;20032;-83
2022/04/14 01:00:54;;;;;;;25.08;17.08;;;;;;;;;;5001225;28;20449;-82
2022/04/14 01:03:21;;;;;;;26.50;17.58;;;;;;;;;;5000700;28;20026;-83
2022/04/14 01:05:47;;;;;;;25.80;17.38;;;;;;;;;;5006496;28;20033;-82
2022/04/14 01:08:20;;;;;;;26.58;17.77;;;;;;;;;;5002444;28;20026;-82
2022/04/14 01:10:48;;;;;;;23.10;16.70;;;;;;;;;;5000708;28;20033;-89
2022/04/14 01:13:18;;;;;;;23.88;17.10;;;;;;;;;;5002389;28;20040;-90
2022/04/14 01:15:47;;;;;;;25.17;17.33;;;;;;;;;;5004400;28;20034;-87
2022/04/14 01:18:14;;;;;;;23.50;17.00;;;;;;;;;;5001054;28;20030;-85
2022/04/14 01:20:41;;;;;;;22.83;16.52;;;;;;;;;;5003351;28;20136;-88
2022/04/14 01:23:09;;;;;;;25.88;17.88;;;;;;;;;;5000988;28;20030;-89
2022/04/14 01:25:35;;;;;;;23.63;17.65;;;;;;;;;;5003889;28;20033;-82
2022/04/14 01:28:02;;;;;;;23.63;16.42;;;;;;;;;;5004110;28;20026;-82
2022/04/14 01:30:28;;;;;;;23.80;16.65;;;;;;;;;;5007974;28;20743;-82
2022/04/14 01:32:57;;;;;;;24.35;16.50;;;;;;;;;;5019857;28;20021;-88
2022/04/14 01:35:23;;;;;;;24.08;16.65;;;;;;;;;;5001178;28;20026;-83
2022/04/14 01:37:49;;;;;;;24.65;16.88;;;;;;;;;;5002351;28;20022;-86
2022/04/14 01:40:15;;;;;;;22.92;16.20;;;;;;;;;;4998572;28;20468;-82
2022/04/14 01:42:40;;;;;;;25.20;17.02;;;;;;;;;;5007752;28;20108;-87
2022/04/14 01:45:09;;;;;;;23.23;16.20;;;;;;;;;;5004830;28;20136;-87
2022/04/14 01:47:39;;;;;;;23.95;16.70;;;;;;;;;;5000057;28;20044;-87
2022/04/14 01:50:07;;;;;;;23.42;16.73;;;;;;;;;;5000062;28;20576;-86
2022/04/14 01:52:33;;;;;;;24.40;17.95;;;;;;;;;;4999447;28;20482;-87
2022/04/14 01:54:58;;;;;;;24.17;17.40;;;;;;;;;;4999772;28;20061;-82
2022/04/14 01:57:24;;;;;;;23.02;15.98;;;;;;;;;;5005765;28;20629;-86
2022/04/14 01:59:49;;;;;;;24.58;17.10;;;;;;;;;;5001664;28;20464;-81
2022/04/14 02:02:14;;;;;;;24.30;16.88;;;;;;;;;;5003013;28;20112;-87
2022/04/14 02:04:40;;;;;;;23.60;16.60;;;;;;;;;;5002488;28;20092;-87
2022/04/14 02:07:06;;;;;;;23.63;16.48;;;;;;;;;;5002601;28;20034;-82
2022/04/14 02:09:31;;;;;;;23.20;16.38;;;;;;;;;;5005038;28;20037;-83
2022/04/14 02:11:57;;;;;;;22.95;17.10;;;;;;;;;;5003925;28;20032;-81
2022/04/14 02:14:22;;;;;;;25.20;16.17;;;;;;;;;;5016723;28;20034;-87
2022/04/14 02:16:47;;;;;;;23.08;16.95;;;;;;;;;;5005665;28;20355;-88
2022/04/14 02:19:13;;;;;;;22.67;16.35;;;;;;;;;;5000233;28;20034;-88
2022/04/14 02:21:38;;;;;;;23.98;16.85;;;;;;;;;;5000244;28;20026;-80
2022/04/14 02:24:04;;;;;;;25.63;17.67;;;;;;;;;;5004588;28;20033;-85
2022/04/14 02:26:29;;;;;;;22.95;16.88;;;;;;;;;;5002015;28;20378;-82
2022/04/14 02:28:54;;;;;;;22.95;16.98;;;;;;;;;;5004702;28;20041;-86
2022/04/14 02:31:20;;;;;;;22.67;16.52;;;;;;;;;;5004046;28;20034;-89
2022/04/14 02:33:45;;;;;;;21.75;15.70;;;;;;;;;;5006233;28;20437;-86
2022/04/14 02:36:10;;;;;;;23.20;16.65;;;;;;;;;;5003703;28;20052;-89
2022/04/14 02:38:36;;;;;;;23.42;16.20;;;;;;;;;;5003775;28;20080;-80
2022/04/14 02:41:02;;;;;;;22.35;15.95;;;;;;;;;;5006068;28;20025;-82
2022/04/14 02:43:27;;;;;;;21.75;15.13;;;;;;;;;;5001432;28;20413;-83
2022/04/14 02:45:52;;;;;;;22.95;16.23;;;;;;;;;;5021093;28;20076;-81
2022/04/14 02:48:18;;;;;;;22.38;15.73;;;;;;;;;;5001879;28;20422;-80
2022/04/14 02:50:43;;;;;;;21.35;15.57;;;;;;;;;;5003635;28;20029;-81
2022/04/14 02:53:10;;;;;;;24.27;16.48;;;;;;;;;;5003090;28;20517;-81
2022/04/14 02:55:35;;;;;;;23.33;16.98;;;;;;;;;;5003907;28;20029;-81
2022/04/14 02:58:01;;;;;;;23.38;15.90;;;;;;;;;;5002165;28;20090;-80
2022/04/14 03:00:26;;;;;;;22.60;15.95;;;;;;;;;;5003228;28;20029;-82
2022/04/14 03:02:51;;;;;;;24.35;16.88;;;;;;;;;;5000998;28;20040;-90
2022/04/14 03:05:17;;;;;;;21.33;15.27;;;;;;;;;;5006195;28;20030;-81
2022/04/14 03:07:42;;;;;;;21.42;15.23;;;;;;;;;;5004646;28;20499;-81
2022/04/14 03:10:08;;;;;;;23.00;15.73;;;;;;;;;;5003651;28;20030;-86
2022/04/14 03:12:50;;;;;;;22.95;16.33;;;;;;;;;;5003523;28;21027;-81
2022/04/14 03:15:16;;;;;;;21.00;14.20;;;;;;;;;;5005969;28;20197;-82
2022/04/14 03:17:42;;;;;;;22.40;15.98;;;;;;;;;;5005114;28;20030;-81
2022/04/14 03:20:08;;;;;;;21.00;15.63;;;;;;;;;;5002506;28;20025;-86
2022/04/14 03:22:35;;;;;;;23.17;14.77;;;;;;;;;;5003459;28;20038;-81
2022/04/14 03:25:05;;;;;;;20.90;14.82;;;;;;;;;;5004046;28;20033;-83
2022/04/14 03:27:30;;;;;;;21.55;15.43;;;;;;;;;;5004868;28;20030;-82
2022/04/14 03:29:56;;;;;;;19.23;14.55;;;;;;;;;;5002342;28;20044;-87
2022/04/14 03:32:22;;;;;;;19.98;14.10;;;;;;;;;;5006828;28;20080;-89
2022/04/14 03:34:48;;;;;;;20.05;14.10;;;;;;;;;;5006331;28;20065;-88
2022/04/14 03:37:14;;;;;;;21.35;15.25;;;;;;;;;;5003754;28;20560;-87
2022/04/14 03:39:39;;;;;;;21.38;14.35;;;;;;;;;;5002297;28;20113;-81
2022/04/14 03:42:05;;;;;;;19.27;14.23;;;;;;;;;;5005833;28;20081;-87
2022/04/14 03:44:30;;;;;;;21.10;14.48;;;;;;;;;;5003734;28;20042;-88
2022/04/14 03:46:55;;;;;;;19.27;14.27;;;;;;;;;;5001293;28;20092;-84
2022/04/14 03:49:21;;;;;;;19.65;13.95;;;;;;;;;;5004633;28;20057;-89
2022/04/14 03:51:46;;;;;;;19.05;13.43;;;;;;;;;;5004648;28;20087;-89
2022/04/14 03:54:11;;;;;;;17.92;13.02;;;;;;;;;;5004632;28;20034;-87
2022/04/14 03:56:37;;;;;;;16.85;12.40;;;;;;;;;;5004416;28;20029;-88
2022/04/14 03:59:02;;;;;;;21.45;12.90;;;;;;;;;;5006661;28;20022;-88
2022/04/14 04:01:28;;;;;;;20.85;13.80;;;;;;;;;;5002649;28;20033;-84
2022/04/14 04:03:53;;;;;;;20.58;13.80;;;;;;;;;;5016213;28;20128;-81
2022/04/14 04:06:18;;;;;;;20.33;13.15;;;;;;;;;;5003911;28;20129;-84
2022/04/14 04:08:44;;;;;;;19.50;13.68;;;;;;;;;;5017096;28;20045;-81
2022/04/14 04:11:09;;;;;;;17.58;12.82;;;;;;;;;;5006291;28;20042;-88
2022/04/14 04:13:34;;;;;;;19.95;13.32;;;;;;;;;;5008197;28;20385;-87
2022/04/14 04:16:00;;;;;;;17.38;13.02;;;;;;;;;;5000515;28;20038;-88
2022/04/14 04:18:25;;;;;;;19.23;13.55;;;;;;;;;;5007048;28;20026;-87
2022/04/14 04:20:50;;;;;;;18.00;13.27;;;;;;;;;;5005358;28;20029;-84
2022/04/14 04:23:16;;;;;;;18.52;12.55;;;;;;;;;;5020567;28;20056;-81
2022/04/14 04:25:41;;;;;;;17.83;13.25;;;;;;;;;;5005676;28;20037;-89
2022/04/14 04:28:07;;;;;;;19.27;13.73;;;;;;;;;;5003054;28;20060;-81
2022/04/14 04:30:32;;;;;;;17.67;13.00;;;;;;;;;;5004719;28;20184;-82
2022/04/14 04:32:58;;;;;;;17.88;12.07;;;;;;;;;;5004467;28;20037;-87
2022/04/14 04:35:23;;;;;;;18.50;12.75;;;;;;;;;;5005750;28;20096;-82
2022/04/14 04:37:49;;;;;;;17.33;12.63;;;;;;;;;;5004484;28;20906;-87
2022/04/14 04:40:15;;;;;;;17.13;12.02;;;;;;;;;;5002334;28;21934;-84
2022/04/14 04:42:40;;;;;;;18.80;12.77;;;;;;;;;;5005276;28;20441;-81
2022/04/14 04:45:06;;;;;;;17.83;12.38;;;;;;;;;;5007310;28;20050;-82
2022/04/14 04:47:31;;;;;;;16.15;11.77;;;;;;;;;;5004383;28;20061;-80
2022/04/14 04:49:57;;;;;;;17.35;12.23;;;;;;;;;;5001732;28;20033;-87
2022/04/14 04:52:22;;;;;;;18.35;12.88;;;;;;;;;;5003673;28;20472;-82
2022/04/14 04:54:48;;;;;;;15.27;11.32;;;;;;;;;;5002143;28;20054;-81
2022/04/14 04:57:13;;;;;;;17.25;12.43;;;;;;;;;;4999888;28;20025;-88
2022/04/14 04:59:38;;;;;;;15.35;11.27;;;;;;;;;;5002107;28;20040;-88
2022/04/14 05:02:04;;;;;;;14.57;11.20;;;;;;;;;;5013843;28;20033;-87
2022/04/14 05:04:29;;;;;;;14.43;10.80;;;;;;;;;;5000559;28;20029;-86
2022/04/14 05:06:55;;;;;;;15.07;11.20;;;;;;;;;;5000860;28;21099;-87
2022/04/14 05:09:23;;;;;;;16.55;11.82;;;;;;;;;;4999910;28;20021;-81
2022/04/14 05:11:49;;;;;;;15.18;10.77;;;;;;;;;;5004580;28;20834;-83
2022/04/14 05:14:14;;;;;;;14.65;11.27;;;;;;;;;;5005629;28;20129;-87
2022/04/14 05:16:39;;;;;;;17.20;11.60;;;;;;;;;;5003610;28;20056;-80
2022/04/14 05:19:05;;;;;;;15.95;11.40;;;;;;;;;;5003143;28;20038;-88
2022/04/14 05:21:30;;;;;;;15.85;11.50;;;;;;;;;;5004272;28;20034;-88
2022/04/14 05:23:56;;;;;;;15.43;11.30;;;;;;;;;;5004819;28;20033;-81
2022/04/14 05:26:21;;;;;;;14.70;11.15;;;;;;;;;;5005768;28;20045;-81
2022/04/14 05:28:46;;;;;;;15.40;11.90;;;;;;;;;;5001552;28;20030;-88
2022/04/14 05:31:12;;;;;;;15.57;11.30;;;;;;;;;;5001755;28;20040;-88
2022/04/14 05:33:37;;;;;;;16.35;12.02;;;;;;;;;;5000510;28;20037;-79
2022/04/14 05:36:03;;;;;;;15.15;11.27;;;;;;;;;;5005945;28;20029;-83
2022/04/14 05:38:28;;;;;;;15.02;10.73;;;;;;;;;;5002674;28;20390;-88
2022/04/14 05:40:54;;;;;;;14.95;10.68;;;;;;;;;;5001809;28;20030;-80
2022/04/14 05:43:25;;;;;;;13.95;10.73;;;;;;;;;;5004392;28;20033;-81
2022/04/14 05:45:50;;;;;;;15.55;11.32;;;;;;;;;;5005161;28;20045;-81
2022/04/14 05:48:17;;;;;;;15.40;11.93;;;;;;;;;;5004146;28;20048;-81
2022/04/14 05:50:43;;;;;;;17.60;11.32;;;;;;;;;;5007233;28;20041;-82
2022/04/14 05:53:10;;;;;;;13.75;10.93;;;;;;;;;;5001893;28;20026;-82
2022/04/14 05:55:35;;;;;;;13.60;10.60;;;;;;;;;;5007059;28;20042;-87
2022/04/14 05:58:03;;;;;;;16.20;12.25;;;;;;;;;;5006227;28;20520;-89
2022/04/14 06:00:29;;;;;;;13.60;10.43;;;;;;;;;;5006375;28;20621;-81
2022/04/14 06:02:54;;;;;;;16.05;11.85;;;;;;;;;;5004741;28;20133;-88
2022/04/14 06:05:19;;;;;;;14.27;10.85;;;;;;;;;;5001862;28;20065;-89
2022/04/14 06:07:45;;;;;;;15.48;10.90;;;;;;;;;;5002061;28;20133;-87
2022/04/14 06:10:10;;;;;;;17.48;11.63;;;;;;;;;;5007331;28;20040;-88
2022/04/14 06:12:35;;;;;;;15.20;11.18;;;;;;;;;;5001570;28;20580;-86
2022/04/14 06:15:01;;;;;;;16.23;11.38;;;;;;;;;;5007851;28;20033;-87
2022/04/14 06:17:26;;;;;;;15.00;11.18;;;;;;;;;;5003633;28;20021;-89
2022/04/14 06:19:51;;;;;;;16.20;11.15;;;;;;;;;;5002719;28;20479;-88
2022/04/14 06:22:17;;;;;;;14.82;11.32;;;;;;;;;;5003541;28;20026;-87
2022/04/14 06:24:42;;;;;;;17.80;11.95;;;;;;;;;;5005412;28;20029;-81
2022/04/14 06:27:07;;;;;;;16.88;12.32;;;;;;;;;;5006247;28;20029;-87
2022/04/14 06:29:33;;;;;;;16.48;12.48;;;;;;;;;;5006512;28;20405;-81
2022/04/14 06:31:58;;;;;;;16.25;11.80;;;;;;;;;;5003003;28;20661;-81
2022/04/14 06:34:24;;;;;;;16.85;12.05;;;;;;;;;;5004241;28;20022;-87
2022/04/14 06:36:49;;;;;;;14.98;11.32;;;;;;;;;;5002523;28;20440;-88
2022/04/14 06:39:14;;;;;;;15.30;11.88;;;;;;;;;;5004457;28;20041;-88
2022/04/14 06:41:40;;;;;;;17.33;12.00;;;;;;;;;;5003638;28;20113;-81
2022/04/14 06:44:06;;;;;;;17.65;11.82;;;;;;;;;;5004961;28;20045;-81
2022/04/14 06:46:31;;;;;;;16.95;11.80;;;;;;;;;;5004008;28;20036;-88
2022/04/14 06:48:57;;;;;;;16.80;12.13;;;;;;;;;;5010482;28;20021;-80
2022/04/14 06:51:25;;;;;;;18.83;11.98;;;;;;;;;;5007558;28;21330;-80
2022/04/14 06:53:50;;;;;;;15.90;11.68;;;;;;;;;;5011527;28;20457;-80
2022/04/14 06:56:16;;;;;;;16.85;11.88;;;;;;;;;;5007872;28;20053;-80
2022/04/14 06:58:42;;;;;;;16.58;11.93;;;;;;;;;;5012185;28;20025;-87
2022/04/14 07:01:08;;;;;;;17.17;11.57;;;;;;;;;;5009177;28;20026;-80
2022/04/14 07:03:33;;;;;;;16.00;11.43;;;;;;;;;;5000650;28;20113;-83
2022/04/14 07:06:00;;;;;;;19.35;12.85;;;;;;;;;;5010184;28;20117;-86
2022/04/14 07:08:26;;;;;;;16.23;12.20;;;;;;;;;;5007586;28;20057;-80
2022/04/14 07:10:52;;;;;;;15.45;11.38;;;;;;;;;;5008405;28;20532;-82
2022/04/14 07:13:17;;;;;;;17.95;12.38;;;;;;;;;;5010072;28;20450;-80
2022/04/14 07:15:44;;;;;;;16.98;12.88;;;;;;;;;;5011427;28;20025;-80
2022/04/14 07:18:09;;;;;;;16.60;12.30;;;;;;;;;;5008067;28;20021;-80
2022/04/14 07:20:35;;;;;;;19.15;13.05;;;;;;;;;;5009717;28;20367;-86
2022/04/14 07:23:02;;;;;;;15.82;12.65;;;;;;;;;;4987306;28;20057;-87
2022/04/14 07:25:30;;;;;;;18.15;12.35;;;;;;;;;;5011582;28;20057;-87
2022/04/14 07:27:56;;;;;;;17.23;12.70;;;;;;;;;;5008966;28;20018;-88
2022/04/14 07:30:23;;;;;;;18.55;13.35;;;;;;;;;;5007643;28;20117;-87
2022/04/14 07:32:49;;;;;;;18.98;13.85;;;;;;;;;;5009141;28;20025;-87
2022/04/14 07:35:15;;;;;;;18.65;13.15;;;;;;;;;;5007184;28;20121;-87
2022/04/14 07:37:41;;;;;;;17.45;11.82;;;;;;;;;;5006036;28;20030;-86
2022/04/14 07:40:08;;;;;;;17.90;12.43;;;;;;;;;;5006121;28;20361;-80
2022/04/14 07:42:38;;;;;;;16.83;12.38;;;;;;;;;;5008095;28;20026;-80
2022/04/14 07:45:06;;;;;;;15.20;10.60;;;;;;;;;;5007889;28;20051;-86
2022/04/14 07:47:32;;;;;;;16.17;10.18;;;;;;;;;;5005464;28;20049;-81
2022/04/14 07:49:57;;;;;;;17.08;11.77;;;;;;;;;;4987235;28;20069;-85
2022/04/14 07:52:23;;;;;;;15.52;11.23;;;;;;;;;;5005760;28;20113;-87
2022/04/14 07:54:48;;;;;;;16.70;11.60;;;;;;;;;;5007359;28;20026;-86
2022/04/14 07:57:14;;;;;;;15.05;10.63;;;;;;;;;;5008247;28;20036;-86
2022/04/14 07:59:39;;;;;;;14.68;10.43;;;;;;;;;;5006338;28;20038;-90
2022/04/14 08:02:05;;;;;;;14.70;10.23;;;;;;;;;;5008607;28;20065;-88
2022/04/14 08:04:31;;;;;;;14.30;9.52;;;;;;;;;;5008002;28;20042;-81
2022/04/14 08:06:57;;;;;;;11.93;8.80;;;;;;;;;;5006910;28;20031;-87
2022/04/14 08:09:24;;;;;;;14.82;9.48;;;;;;;;;;5006374;28;20501;-86
2022/04/14 08:11:50;;;;;;;12.10;8.60;;;;;;;;;;5006957;28;20080;-85
2022/04/14 08:14:15;;;;;;;13.35;8.70;;;;;;;;;;5007162;28;20034;-87
2022/04/14 08:16:41;;;;;;;15.45;9.02;;;;;;;;;;5003409;28;20442;-87
2022/04/14 08:19:06;;;;;;;10.85;7.68;;;;;;;;;;5009147;28;20749;-80
2022/04/14 08:21:32;;;;;;;11.70;8.30;;;;;;;;;;5006138;28;20116;-81
2022/04/14 08:23:58;;;;;;;13.13;8.43;;;;;;;;;;5008039;28;20030;-87
2022/04/14 08:26:25;;;;;;;13.65;8.40;;;;;;;;;;5007670;28;20121;-86
2022/04/14 08:28:55;;;;;;;13.82;9.85;;;;;;;;;;5007689;28;20026;-86
2022/04/14 08:31:21;;;;;;;13.20;9.00;;;;;;;;;;5006446;28;20025;-86
2022/04/14 08:33:48;;;;;;;14.57;9.57;;;;;;;;;;5005150;28;20025;-85
2022/04/14 08:36:15;;;;;;;13.20;8.68;;;;;;;;;;5006777;28;20054;-85
2022/04/14 08:38:42;;;;;;;14.52;9.02;;;;;;;;;;5009786;28;20014;-87
2022/04/14 08:41:08;;;;;;;13.88;8.23;;;;;;;;;;5009844;28;20113;-81
2022/04/14 08:43:35;;;;;;;11.75;7.95;;;;;;;;;;5007714;28;20061;-87
2022/04/14 08:46:04;;;;;;;12.20;7.93;;;;;;;;;;5009185;28;20054;-81
2022/04/14 08:48:31;;;;;;;11.55;7.18;;;;;;;;;;5007012;28;20161;-86
2022/04/14 08:50:57;;;;;;;11.32;8.05;;;;;;;;;;5002113;28;20029;-86
2022/04/14 08:53:24;;;;;;;11.80;7.47;;;;;;;;;;5006929;28;20518;-79
2022/04/14 08:55:50;;;;;;;12.23;7.75;;;;;;;;;;5008635;28;20022;-86
2022/04/14 08:58:18;;;;;;;12.35;7.57;;;;;;;;;;5003768;28;20029;-86
2022/04/14 09:00:44;;;;;;;11.02;7.75;;;;;;;;;;5006873;28;20031;-85
2022/04/14 09:03:13;;;;;;;11.77;7.82;;;;;;;;;;5006229;28;20034;-80
2022/04/14 09:05:38;;;;;;;11.23;7.18;;;;;;;;;;5005952;28;20038;-84
2022/04/14 09:08:04;;;;;;;12.70;8.05;;;;;;;;;;5004733;28;20067;-86
2022/04/14 09:10:29;;;;;;;10.82;6.30;;;;;;;;;;5003624;28;20022;-82
2022/04/14 09:12:55;;;;;;;9.38;6.20;;;;;;;;;;5004842;28;20076;-86
2022/04/14 09:15:20;;;;;;;11.95;6.47;;;;;;;;;;5006967;28;20026;-86
2022/04/14 09:17:46;;;;;;;8.85;5.72;;;;;;;;;;5006425;28;20057;-88
2022/04/14 09:20:33;;;;;;;10.88;6.45;;;;;;;;;;5006511;28;20038;-81
2022/04/14 09:23:13;;;;;;;11.02;6.55;;;;;;;;;;5005328;28;20713;-86
2022/04/14 09:25:39;;;;;;;11.65;6.18;;;;;;;;;;5019749;28;20113;-81
2022/04/14 09:28:13;;;;;;;10.13;6.75;;;;;;;;;;5005593;28;20084;-82
2022/04/14 09:30:40;;;;;;;10.75;6.10;;;;;;;;;;5006506;28;20056;-88
2022/04/14 09:33:15;;;;;;;10.25;6.20;;;;;;;;;;5006211;28;20034;-81
2022/04/14 09:35:40;;;;;;;8.57;4.97;;;;;;;;;;5003943;28;20042;-86
2022/04/14 09:38:13;;;;;;;8.40;5.38;;;;;;;;;;5001609;28;20030;-86
2022/04/14 09:40:39;;;;;;;8.27;5.07;;;;;;;;;;5006176;28;20022;-80
2022/04/14 09:43:05;;;;;;;9.68;5.03;;;;;;;;;;5005866;28;20040;-86
2022/04/14 09:45:32;;;;;;;9.38;5.82;;;;;;;;;;5003533;28;20045;-80
2022/04/14 09:48:15;;;;;;;8.25;5.55;;;;;;;;;;5004876;28;20045;-80
2022/04/14 09:50:43;;;;;;;9.67;6.20;;;;;;;;;;5005305;28;20019;-80
2022/04/14 09:53:21;;;;;;;8.02;5.60;;;;;;;;;;5001082;28;20286;-80
2022/04/14 09:55:49;;;;;;;10.63;5.72;;;;;;;;;;5007793;28;20043;-80
2022/04/14 09:58:19;;;;;;;9.73;6.32;;;;;;;;;;5005456;28;20033;-81
2022/04/14 10:00:46;;;;;;;10.85;6.13;;;;;;;;;;5006541;28;20034;-80
2022/04/14 10:03:21;;;;;;;9.27;5.93;;;;;;;;;;4996430;28;20034;-81
2022/04/14 10:05:48;;;;;;;10.80;6.10;;;;;;;;;;5000994;28;20029;-84
2022/04/14 10:08:15;;;;;;;9.07;6.20;;;;;;;;;;5003994;28;20072;-81
2022/04/14 10:10:47;;;;;;;11.02;5.95;;;;;;;;;;5004036;28;20393;-86
2022/04/14 10:13:17;;;;;;;11.77;6.33;;;;;;;;;;5020059;28;20034;-83
2022/04/14 10:15:44;;;;;;;9.98;6.45;;;;;;;;;;5003279;28;20128;-86
2022/04/14 10:18:17;;;;;;;8.60;6.20;;;;;;;;;;5003431;28;20030;-84
2022/04/14 10:20:45;;;;;;;11.68;6.68;;;;;;;;;;5006136;28;20033;-85
2022/04/14 10:23:15;;;;;;;11.77;6.72;;;;;;;;;;5010337;28;20668;-87
2022/04/14 10:25:42;;;;;;;11.82;8.05;;;;;;;;;;5010809;28;20021;-85
2022/04/14 10:28:12;;;;;;;11.32;7.40;;;;;;;;;;5008552;28;20818;-80
2022/04/14 10:30:40;;;;;;;10.80;7.22;;;;;;;;;;5008388;28;20022;-87
2022/04/14 10:33:05;;;;;;;10.38;7.25;;;;;;;;;;5007621;28;20029;-81
2022/04/14 10:35:32;;;;;;;11.02;7.38;;;;;;;;;;5005907;28;20025;-86
2022/04/14 10:38:23;;;;;;;10.68;7.13;;;;;;;;;;5008030;28;20032;-87
2022/04/14 10:40:51;;;;;;;13.98;7.05;;;;;;;;;;5008669;28;20474;-81
2022/04/14 10:43:24;;;;;;;10.45;6.45;;;;;;;;;;5005598;28;20528;-87
2022/04/14 10:45:55;;;;;;;14.25;8.10;;;;;;;;;;5007731;28;20069;-86
2022/04/14 10:48:31;;;;;;;11.40;7.13;;;;;;;;;;5010671;28;20041;-87
2022/04/14 10:51:20;;;;;;;12.32;7.65;;;;;;;;;;5006627;28;20140;-81
2022/04/14 10:53:56;;;;;;;11.13;7.95;;;;;;;;;;5005698;28;20367;-80
2022/04/14 10:56:33;;;;;;;11.07;7.40;;;;;;;;;;5008153;28;20033;-79
2022/04/14 10:58:59;;;;;;;10.70;7.18;;;;;;;;;;5013051;28;20570;-80
2022/04/14 11:01:52;;;;;;;15.02;8.02;;;;;;;;;;5001525;28;20129;-79
2022/04/14 11:04:21;;;;;;;9.80;7.10;;;;;;;;;;5005419;28;20054;-83
2022/04/14 11:06:47;;;;;;;11.10;7.05;;;;;;;;;;5002460;28;20128;-78
2022/04/14 11:09:44;;;;;;;10.60;6.38;;;;;;;;;;5007208;28;20026;-81
2022/04/14 11:12:13;;;;;;;11.07;6.70;;;;;;;;;;5022361;28;20466;-79
2022/04/14 11:14:53;;;;;;;11.27;6.68;;;;;;;;;;5004513;28;20068;-81
2022/04/14 11:17:30;;;;;;;10.82;6.40;;;;;;;;;;5004961;28;20399;-83
2022/04/14 11:19:56;;;;;;;10.27;6.15;;;;;;;;;;5003226;28;20038;-79
2022/04/14 11:22:21;;;;;;;10.40;6.22;;;;;;;;;;5003356;28;20514;-82
2022/04/14 11:24:47;;;;;;;10.23;6.40;;;;;;;;;;5008906;28;20394;-82
2022/04/14 11:27:14;;;;;;;7.68;5.07;;;;;;;;;;5005021;28;20486;-82
2022/04/14 11:29:42;;;;;;;8.95;5.60;;;;;;;;;;5007118;28;20065;-78
2022/04/14 11:32:08;;;;;;;11.57;6.60;;;;;;;;;;5004614;28;20516;-78
2022/04/14 11:34:35;;;;;;;12.20;6.68;;;;;;;;;;5002439;28;20060;-79
2022/04/14 11:37:03;;;;;;;8.18;4.90;;;;;;;;;;5002230;28;20033;-79
2022/04/14 11:39:30;;;;;;;9.48;5.30;;;;;;;;;;5007822;28;20026;-78
2022/04/14 11:42:06;;;;;;;8.73;5.85;;;;;;;;;;5021383;28;20696;-79
2022/04/14 11:44:32;;;;;;;8.77;4.90;;;;;;;;;;5006083;28;20045;-78
2022/04/14 11:46:59;;;;;;;8.32;5.05;;;;;;;;;;5006103;28;20393;-79
2022/04/14 11:49:26;;;;;;;7.22;4.85;;;;;;;;;;5007246;28;20163;-78
2022/04/14 11:51:54;;;;;;;7.65;5.05;;;;;;;;;;5004009;28;20103;-81
2022/04/14 11:54:31;;;;;;;9.35;5.60;;;;;;;;;;5004828;28;20056;-78
2022/04/14 11:57:06;;;;;;;13.25;7.03;;;;;;;;;;5004632;28;20030;-81
2022/04/14 11:59:35;;;;;;;8.50;5.90;;;;;;;;;;5005037;28;20092;-79
2022/04/14 12:02:02;;;;;;;9.77;6.07;;;;;;;;;;5007922;28;20030;-78
2022/04/14 12:04:34;;;;;;;10.10;6.50;;;;;;;;;;5010616;28;20053;-78
2022/04/14 12:06:59;;;;;;;11.02;6.60;;;;;;;;;;5007757;28;20026;-79
2022/04/14 12:09:24;;;;;;;9.45;6.30;;;;;;;;;;5008467;28;20033;-80
2022/04/14 12:11:52;;;;;;;10.48;6.80;;;;;;;;;;5003937;28;20037;-78
2022/04/14 12:14:17;;;;;;;9.13;6.90;;;;;;;;;;5007547;28;20087;-82
2022/04/14 12:16:53;;;;;;;8.95;5.82;;;;;;;;;;5007855;28;20030;-79
2022/04/14 12:19:21;;;;;;;12.32;6.85;;;;;;;;;;5008809;28;20026;-81
2022/04/14 12:22:02;;;;;;;11.27;6.75;;;;;;;;;;5007923;28;20046;-78
2022/04/14 12:24:29;;;;;;;8.13;5.90;;;;;;;;;;5007749;28;20060;-81
2022/04/14 12:26:55;;;;;;;9.85;6.70;;;;;;;;;;5006768;28;20018;-78
2022/04/14 12:29:22;;;;;;;9.02;5.95;;;;;;;;;;5023104;28;20052;-82
2022/04/14 12:31:47;;;;;;;7.45;4.90;;;;;;;;;;5008272;28;20045;-82
2022/04/14 12:34:13;;;;;;;7.70;5.18;;;;;;;;;;5009681;28;20034;-82
2022/04/14 12:36:38;;;;;;;7.85;4.90;;;;;;;;;;5009862;28;20030;-82
2022/04/14 12:39:06;;;;;;;6.63;3.92;;;;;;;;;;5009340;28;20096;-78
2022/04/14 12:41:36;;;;;;;6.75;4.20;;;;;;;;;;5010195;28;20026;-77
2022/04/14 12:44:02;;;;;;;6.70;4.28;;;;;;;;;;5007229;28;20033;-78
2022/04/14 12:46:39;;;;;;;5.90;4.20;;;;;;;;;;5007817;28;20037;-79
2022/04/14 12:49:19;;;;;;;5.53;3.83;;;;;;;;;;5023939;28;20045;-79
2022/04/14 12:51:56;;;;;;;5.82;4.03;;;;;;;;;;5004920;28;20053;-81
2022/04/14 12:54:23;;;;;;;8.40;4.80;;;;;;;;;;5006960;28;20029;-83
2022/04/14 12:56:57;;;;;;;7.65;5.55;;;;;;;;;;5005186;28;20026;-78
2022/04/14 12:59:22;;;;;;;10.60;6.85;;;;;;;;;;5012537;28;20053;-83
2022/04/14 13:01:49;;;;;;;9.50;6.47;;;;;;;;;;5008671;28;20049;-82
2022/04/14 13:04:16;;;;;;;8.93;6.47;;;;;;;;;;5006262;28;20034;-81
2022/04/14 13:06:55;;;;;;;11.57;6.75;;;;;;;;;;5009782;28;20026;-83
2022/04/14 13:09:20;;;;;;;9.10;7.05;;;;;;;;;;5005564;28;20025;-82
2022/04/14 13:11:46;;;;;;;10.07;6.90;;;;;;;;;;5007872;28;20406;-78
2022/04/14 13:14:22;;;;;;;9.20;7.18;;;;;;;;;;5009167;28;20417;-83
2022/04/14 13:16:51;;;;;;;10.32;7.93;;;;;;;;;;5009026;28;20044;-77
2022/04/14 13:19:16;;;;;;;11.80;8.40;;;;;;;;;;5009277;28;20779;-78
2022/04/14 13:21:43;;;;;;;12.85;8.80;;;;;;;;;;5008292;28;20026;-81
2022/04/14 13:24:08;;;;;;;11.68;8.68;;;;;;;;;;5008920;28;20026;-82
2022/04/14 13:26:34;;;;;;;10.50;8.32;;;;;;;;;;5009841;28;20433;-81
2022/04/14 13:29:01;;;;;;;13.75;8.40;;;;;;;;;;5011219;28;20032;-78
2022/04/14 13:31:26;;;;;;;10.55;8.27;;;;;;;;;;5009005;28;20564;-79
2022/04/14 13:33:51;;;;;;;11.75;8.40;;;;;;;;;;5008895;28;20061;-81
2022/04/14 13:36:17;;;;;;;9.90;7.07;;;;;;;;;;5008538;28;20112;-81
2022/04/14 13:38:42;;;;;;;9.93;7.00;;;;;;;;;;5006458;28;20478;-78
2022/04/14 13:41:08;;;;;;;10.55;7.57;;;;;;;;;;5009892;28;20032;-79
2022/04/14 13:43:33;;;;;;;9.80;6.93;;;;;;;;;;5009205;28;20022;-82
2022/04/14 13:45:59;;;;;;;11.02;6.88;;;;;;;;;;5010142;28;20046;-78
2022/04/14 13:48:24;;;;;;;12.52;9.00;;;;;;;;;;5010002;28;20046;-78
2022/04/14 13:50:50;;;;;;;9.68;7.90;;;;;;;;;;5009370;28;20029;-82
2022/04/14 13:53:17;;;;;;;11.45;9.15;;;;;;;;;;5007703;28;20026;-81
2022/04/14 13:55:42;;;;;;;10.35;7.65;;;;;;;;;;5007492;28;20028;-81
2022/04/14 13:58:08;;;;;;;8.95;7.13;;;;;;;;;;5008752;28;20414;-81
2022/04/14 14:00:33;;;;;;;8.45;6.80;;;;;;;;;;5008726;28;20025;-78
2022/04/14 14:02:59;;;;;;;9.57;7.10;;;;;;;;;;5010269;28;20482;-83
2022/04/14 14:05:24;;;;;;;9.70;7.30;;;;;;;;;;5008736;28;20029;-77
2022/04/14 14:07:51;;;;;;;9.15;7.25;;;;;;;;;;5024132;28;20029;-82
2022/04/14 14:10:16;;;;;;;12.27;7.82;;;;;;;;;;5007792;28;20375;-78
2022/04/14 14:12:42;;;;;;;11.15;7.05;;;;;;;;;;5008882;28;20032;-78
2022/04/14 14:15:08;;;;;;;9.23;6.75;;;;;;;;;;5008794;28;20120;-83
2022/04/14 14:17:38;;;;;;;7.68;5.82;;;;;;;;;;5007997;28;20026;-78
2022/04/14 14:20:10;;;;;;;8.18;5.55;;;;;;;;;;5009102;28;20029;-78
2022/04/14 14:22:35;;;;;;;9.45;5.55;;;;;;;;;;5008829;28;20117;-77
2022/04/14 14:25:01;;;;;;;8.00;5.25;;;;;;;;;;5009002;28;20496;-78